Time;durP1;ratioP1;P1;durP2;ratioP2;P2;SDS_P1;SDS_P2;PMS_P1;PMS_P2;Temp;Humidity;BMP_temperature;BMP_pressure;BME280_temperature;BME280_humidity;BME280_pressure;Samples;Min_cycle;Max_cycle;Signal;HPM_P1;HPM_P2
2023/04/01 00:00:26;;;;;;;42.67;11.73;;;;;;;8.49;98.74;99306.91;6107604;19;20010;-75
2023/04/01 00:02:30;;;;;;;47.30;12.63;;;;;;;8.54;98.63;99312.72;6107793;19;20007;-76
2023/04/01 00:04:35;;;;;;;43.92;10.70;;;;;;;8.57;98.65;99307.28;6102619;19;20002;-76
2023/04/01 00:06:41;;;;;;;47.05;10.15;;;;;;;8.50;98.57;99312.97;6106125;19;20006;-76
2023/04/01 00:08:46;;;;;;;48.72;10.85;;;;;;;8.49;98.84;99314.75;6106674;19;20070;-76
2023/04/01 00:10:54;;;;;;;42.03;10.60;;;;;;;8.52;99.05;99318.97;6106890;19;20034;-77
2023/04/01 00:12:59;;;;;;;44.47;9.98;;;;;;;8.49;98.98;99316.53;6103320;19;20027;-77
2023/04/01 00:15:05;;;;;;;44.17;10.63;;;;;;;8.46;99.06;99314.09;6084350;19;20027;-77
2023/04/01 00:17:11;;;;;;;32.38;9.23;;;;;;;8.49;98.91;99314.75;6106732;19;20010;-77
2023/04/01 00:19:16;;;;;;;32.13;10.05;;;;;;;8.50;99.15;99320.81;6106560;19;20018;-76
2023/04/01 00:21:23;;;;;;;39.22;9.82;;;;;;;8.51;98.60;99318.13;6107256;19;20455;-76
2023/04/01 00:23:28;;;;;;;32.90;9.10;;;;;;;8.47;98.97;99321.00;6107904;19;20180;-75
2023/04/01 00:25:32;;;;;;;37.13;9.40;;;;;;;8.47;99.00;99321.84;6106207;19;20010;-75
2023/04/01 00:27:41;;;;;;;46.42;10.27;;;;;;;8.44;98.77;99326.41;6101686;19;20490;-75
2023/04/01 00:29:47;;;;;;;42.05;10.30;;;;;;;8.46;98.83;99325.41;6104035;19;20010;-77
2023/04/01 00:31:52;;;;;;;37.35;9.30;;;;;;;8.41;98.78;99331.81;6104914;19;20697;-77
2023/04/01 00:33:57;;;;;;;32.08;10.57;;;;;;;8.48;98.94;99330.56;6104722;19;20434;-77
2023/04/01 00:36:12;;;;;;;36.40;10.95;;;;;;;8.45;98.95;99328.09;6107839;19;20472;-76
2023/04/01 00:38:17;;;;;;;37.67;10.45;;;;;;;8.31;99.14;99327.06;6106317;19;20006;-76
2023/04/01 00:40:28;;;;;;;29.90;8.48;;;;;;;8.34;99.15;99326.88;6105511;19;20559;-77
2023/04/01 00:42:33;;;;;;;34.88;11.00;;;;;;;8.36;98.92;99337.28;6104446;19;20003;-77
2023/04/01 00:44:42;;;;;;;40.75;10.75;;;;;;;8.38;98.90;99337.19;6103580;19;19998;-77
2023/04/01 00:46:52;;;;;;;33.53;11.23;;;;;;;8.40;98.94;99340.59;6101519;19;20078;-78
2023/04/01 00:49:00;;;;;;;41.30;10.95;;;;;;;8.33;98.76;99340.06;6106569;19;20027;-77
2023/04/01 00:51:08;;;;;;;41.72;9.45;;;;;;;8.36;99.10;99342.50;6106510;19;20010;-76
2023/04/01 00:53:14;;;;;;;34.97;8.82;;;;;;;8.38;98.67;99352.91;6103174;19;20078;-76
2023/04/01 00:55:21;;;;;;;45.58;10.88;;;;;;;8.31;99.28;99347.16;6104823;19;20090;-76
2023/04/01 00:57:30;;;;;;;35.30;10.63;;;;;;;8.36;99.13;99347.75;6104636;19;20009;-76
2023/04/01 00:59:43;;;;;;;33.25;9.98;;;;;;;8.29;98.85;99356.84;6103122;19;20020;-76
2023/04/01 01:01:48;;;;;;;32.03;11.05;;;;;;;8.30;99.33;99361.19;6106167;19;20571;-77
2023/04/01 01:03:53;;;;;;;43.50;11.27;;;;;;;8.24;99.51;99362.34;6108365;19;20046;-78
2023/04/01 01:06:26;;;;;;;34.83;10.88;;;;;;;8.25;99.15;99364.03;6104971;19;20012;-71
2023/04/01 01:08:51;;;;;;;28.27;8.93;;;;;;;8.24;99.20;99367.59;6095713;19;20002;-71
2023/04/01 01:10:59;;;;;;;39.60;11.07;;;;;;;8.26;99.40;99359.63;6104416;19;20010;-70
2023/04/01 01:13:20;;;;;;;42.58;10.70;;;;;;;8.24;99.46;99362.34;6100480;19;20023;-71
2023/04/01 01:15:34;;;;;;;24.98;8.77;;;;;;;8.26;99.36;99368.34;6081538;19;20483;-71
2023/04/01 01:17:52;;;;;;;29.38;7.45;;;;;;;8.24;98.86;99362.34;6092960;19;20038;-71
2023/04/01 01:20:30;;;;;;;31.15;8.20;;;;;;;8.23;98.96;99367.66;6098342;19;20014;-72
2023/04/01 01:22:56;;;;;;;27.08;8.32;;;;;;;8.22;99.22;99377.28;6056232;19;20495;-70
2023/04/01 01:25:22;;;;;;;32.95;8.98;;;;;;;8.22;99.34;99374.69;6100693;19;20014;-71
2023/04/01 01:27:43;;;;;;;29.27;8.27;;;;;;;8.25;99.27;99376.28;6075314;19;20007;-70
2023/04/01 01:30:21;;;;;;;23.52;7.95;;;;;;;8.23;99.46;99378.97;6077520;19;20014;-71
2023/04/01 01:32:59;;;;;;;30.08;8.15;;;;;;;8.25;99.26;99374.50;6102188;19;20011;-71
2023/04/01 01:35:34;;;;;;;25.05;6.85;;;;;;;8.22;99.38;99376.44;6070381;19;20503;-72
2023/04/01 01:37:47;;;;;;;27.02;7.40;;;;;;;8.21;99.50;99382.59;6007845;19;20012;-72
2023/04/01 01:40:22;;;;;;;22.38;7.15;;;;;;;8.18;99.44;99378.38;6091387;19;20505;-72
2023/04/01 01:43:06;;;;;;;24.45;7.20;;;;;;;8.20;99.31;99380.91;6020476;19;20010;-72
2023/04/01 01:45:29;;;;;;;26.20;6.93;;;;;;;8.17;99.35;99392.41;6042665;19;20043;-72
2023/04/01 01:47:40;;;;;;;22.73;8.10;;;;;;;8.14;99.65;99392.56;6090163;19;20006;-71
2023/04/01 01:49:49;;;;;;;25.90;7.55;;;;;;;8.14;99.59;99393.41;6081642;19;20025;-70
2023/04/01 01:52:08;;;;;;;22.67;6.03;;;;;;;8.15;99.46;99396.84;6065422;19;20060;-71
2023/04/01 01:54:29;;;;;;;17.45;6.75;;;;;;;8.16;99.54;99398.53;6072584;19;20028;-72
2023/04/01 01:56:51;;;;;;;28.13;8.32;;;;;;;8.16;99.58;99400.31;6099867;19;20113;-70
2023/04/01 01:59:13;;;;;;;22.33;6.63;;;;;;;8.16;99.64;99402.94;6075574;19;20068;-71
2023/04/01 02:02:07;;;;;;;20.13;7.30;;;;;;;8.18;100.00;99404.53;6052001;19;20014;-71
2023/04/01 02:04:57;;;;;;;14.23;5.55;;;;;;;8.21;99.59;99401.75;6049312;19;20578;-72
2023/04/01 02:07:30;;;;;;;24.20;7.63;;;;;;;8.21;99.70;99411.38;6053978;19;20381;-71
2023/04/01 02:09:58;;;;;;;18.63;5.57;;;;;;;8.23;99.46;99423.47;5984313;19;20002;-73
2023/04/01 02:13:00;;;;;;;22.50;7.55;;;;;;;8.21;99.50;99414.00;6059855;19;20253;-72
2023/04/01 02:22:33;;;;;;;;;;;;;;;;;;;;;
2023/04/01 02:25:56;;;;;;;;;;;;;;;;;;;;;
2023/04/01 02:32:16;;;;;;;19.20;6.25;;;;;;;8.19;99.50;99445.50;6029795;19;20018;-73
2023/04/01 02:35:03;;;;;;;20.27;6.18;;;;;;;8.21;99.36;99443.63;5973354;19;20532;-72
2023/04/01 02:43:05;;;;;;;21.33;7.38;;;;;;;8.24;99.73;99450.47;6036096;19;20007;-72
2023/04/01 03:03:15;;;;;;;;;;;;;;;;;;;;;
2023/04/01 03:08:28;;;;;;;23.17;10.10;;;;;;;8.31;99.79;99470.16;6025162;19;20010;-72
2023/04/01 03:14:29;;;;;;;29.27;10.70;;;;;;;8.33;100.00;99492.72;5950649;19;20012;-72
2023/04/01 03:17:07;;;;;;;32.15;10.98;;;;;;;8.35;100.00;99501.34;6075987;19;20025;-72
2023/04/01 03:19:22;;;;;;;28.48;11.23;;;;;;;8.39;100.00;99506.41;6029701;19;20010;-71
2023/04/01 03:24:38;;;;;;;29.58;11.20;;;;;;;8.41;100.00;99517.69;6030480;19;20730;-71
2023/04/01 03:27:29;;;;;;;38.45;12.60;;;;;;;8.40;100.00;99513.34;6037058;19;20019;-71
2023/04/01 03:30:17;;;;;;;35.35;13.15;;;;;;;8.44;100.00;99525.34;6024274;19;20014;-71
2023/04/01 03:32:36;;;;;;;37.35;11.75;;;;;;;8.43;100.00;99523.69;6064392;19;20014;-71
2023/04/01 03:34:49;;;;;;;35.38;13.93;;;;;;;8.44;100.00;99533.22;6096114;19;20010;-71
2023/04/01 03:37:05;;;;;;;31.63;11.68;;;;;;;8.44;100.00;99534.06;6072737;19;20006;-71
2023/04/01 03:43:16;;;;;;;30.45;12.02;;;;;;;8.45;100.00;99538.38;5967005;19;20097;-72
2023/04/01 03:48:46;;;;;;;26.42;10.55;;;;;;;8.47;100.00;99551.38;6063049;19;20018;-72
2023/04/01 03:51:08;;;;;;;33.13;11.48;;;;;;;8.46;100.00;99554.94;6061346;19;20003;-71
2023/04/01 03:56:24;;;;;;;;;;;;;;;;;;;;;
2023/04/01 03:59:13;;;;;;;30.50;10.65;;;;;;;8.46;100.00;99568.03;6035390;19;20440;-71
2023/04/01 04:01:35;;;;;;;33.60;11.07;;;;;;;8.43;100.00;99568.19;6085376;19;20476;-71
2023/04/01 04:03:56;;;;;;;32.22;10.77;;;;;;;8.45;100.00;99574.16;6066360;19;20070;-71
2023/04/01 04:06:24;;;;;;;35.05;12.43;;;;;;;8.43;100.00;99578.66;6050169;19;20043;-71
2023/04/01 04:08:29;;;;;;;34.25;11.20;;;;;;;8.41;100.00;99578.72;6099792;19;20003;-71
2023/04/01 04:10:36;;;;;;;41.40;13.23;;;;;;;8.40;100.00;99584.03;6095322;19;20364;-70
2023/04/01 04:13:04;;;;;;;35.72;12.73;;;;;;;8.41;100.00;99596.22;6047135;19;20006;-71
2023/04/01 04:15:17;;;;;;;42.30;12.57;;;;;;;8.38;100.00;99596.34;6080738;19;20023;-71
2023/04/01 04:17:39;;;;;;;40.97;13.00;;;;;;;8.40;100.00;99607.59;6075916;19;20518;-72
2023/04/01 04:23:03;;;;;;;37.40;11.80;;;;;;;8.41;100.00;99609.28;6017030;19;20010;-72
2023/04/01 04:25:57;;;;;;;36.55;12.25;;;;;;;8.41;100.00;99614.53;6073644;19;20017;-72
2023/04/01 04:28:38;;;;;;;38.50;12.40;;;;;;;8.41;100.00;99614.53;5987693;19;20022;-72
2023/04/01 04:31:06;;;;;;;;;;;;;;;;;;;;;
2023/04/01 04:34:03;;;;;;;36.70;13.20;;;;;;;8.42;100.00;99630.13;6024703;19;20143;-71
2023/04/01 04:36:47;;;;;;;36.35;13.20;;;;;;;8.44;100.00;99628.28;6009710;19;20010;-72
2023/04/01 04:39:36;;;;;;;35.97;12.68;;;;;;;8.40;100.00;99628.53;5990252;19;20117;-72
2023/04/01 04:42:02;;;;;;;34.38;11.98;;;;;;;8.41;99.93;99638.09;6005851;19;20006;-71
2023/04/01 04:44:27;;;;;;;35.63;12.73;;;;;;;8.41;99.69;99638.94;6046889;19;20403;-70
2023/04/01 04:46:39;;;;;;;35.70;12.40;;;;;;;8.42;99.78;99647.63;6059471;19;20347;-70
2023/04/01 04:49:02;;;;;;;41.35;14.90;;;;;;;8.41;99.80;99645.94;6100546;19;20661;-72
2023/04/01 04:51:17;;;;;;;40.25;13.43;;;;;;;8.40;100.00;99655.56;6099545;19;20304;-71
2023/04/01 04:53:25;;;;;;;43.47;15.65;;;;;;;8.40;99.86;99654.69;6068276;19;20010;-70
2023/04/01 04:55:39;;;;;;;38.83;15.73;;;;;;;8.39;99.63;99663.47;6079813;19;20271;-71
2023/04/01 04:57:49;;;;;;;39.95;15.70;;;;;;;8.35;99.64;99661.00;6050645;19;20046;-70
2023/04/01 05:00:09;;;;;;;41.97;15.23;;;;;;;8.39;99.73;99668.69;6098593;19;20023;-73
2023/04/01 05:02:20;;;;;;;41.08;15.35;;;;;;;8.36;99.80;99678.38;6075991;19;20133;-70
2023/04/01 05:04:29;;;;;;;38.55;14.05;;;;;;;8.34;99.76;99677.63;6070411;19;20010;-71
2023/04/01 05:06:34;;;;;;;37.42;12.90;;;;;;;8.35;99.83;99676.72;6071913;19;20035;-71
2023/04/01 05:08:42;;;;;;;34.80;13.80;;;;;;;8.34;99.88;99680.22;6092953;19;20014;-71
2023/04/01 05:10:50;;;;;;;42.75;15.15;;;;;;;8.33;99.68;99685.56;6092378;19;20006;-71
2023/04/01 05:12:57;;;;;;;30.48;12.70;;;;;;;8.32;99.70;99696.94;6097946;19;20113;-71
2023/04/01 05:15:05;;;;;;;32.72;12.02;;;;;;;8.27;99.93;99702.41;6077800;19;20034;-70
2023/04/01 05:17:22;;;;;;;33.92;13.73;;;;;;;8.29;100.00;99704.94;6091690;19;20074;-71
2023/04/01 05:19:32;;;;;;;35.90;14.45;;;;;;;8.25;100.00;99709.50;6096692;19;20024;-71
2023/04/01 05:21:38;;;;;;;38.60;13.27;;;;;;;8.22;100.00;99709.66;6073753;19;20006;-71
2023/04/01 05:23:43;;;;;;;45.97;15.32;;;;;;;8.24;100.00;99713.03;6098648;19;20498;-70
2023/04/01 05:25:52;;;;;;;38.45;13.32;;;;;;;8.24;100.00;99713.03;6098173;19;20018;-70
2023/04/01 05:28:03;;;;;;;34.42;15.35;;;;;;;8.23;100.00;99715.72;6096180;19;20017;-70
2023/04/01 05:30:11;;;;;;;39.00;15.32;;;;;;;8.22;100.00;99721.88;6099048;19;20021;-70
2023/04/01 05:32:16;;;;;;;38.67;13.32;;;;;;;8.20;100.00;99719.34;6077042;19;20007;-71
2023/04/01 05:34:26;;;;;;;35.45;13.23;;;;;;;8.20;100.00;99721.94;6076117;19;20007;-70
2023/04/01 05:36:39;;;;;;;40.78;13.75;;;;;;;8.20;100.00;99727.19;6028373;19;20047;-71
2023/04/01 05:38:47;;;;;;;39.78;15.18;;;;;;;8.21;100.00;99728.88;6095151;19;20230;-72
2023/04/01 05:41:08;;;;;;;42.30;15.20;;;;;;;8.20;100.00;99732.41;6100763;19;20599;-71
2023/04/01 05:43:21;;;;;;;38.92;16.48;;;;;;;8.22;99.93;99735.81;6097911;19;20378;-71
2023/04/01 05:45:34;;;;;;;45.28;17.05;;;;;;;8.22;99.89;99740.22;6059087;19;20052;-71
2023/04/01 05:47:48;;;;;;;43.92;16.35;;;;;;;8.22;99.80;99743.66;6033910;19;20042;-71
2023/04/01 05:49:55;;;;;;;42.70;15.48;;;;;;;8.22;100.00;99755.91;6092550;19;20006;-70
2023/04/01 05:52:11;;;;;;;39.53;15.40;;;;;;;8.22;99.92;99755.91;6077904;19;20030;-70
2023/04/01 05:54:20;;;;;;;39.10;15.32;;;;;;;8.22;99.79;99756.75;6095445;19;20566;-70
2023/04/01 05:56:32;;;;;;;43.22;18.02;;;;;;;8.20;100.00;99761.22;6101233;19;20014;-71
2023/04/01 05:58:39;;;;;;;37.53;15.65;;;;;;;8.20;100.00;99761.22;6102739;19;20159;-71
2023/04/01 06:00:49;;;;;;;42.72;18.05;;;;;;;8.18;99.97;99768.28;6078841;19;20003;-70
2023/04/01 06:03:15;;;;;;;38.50;16.13;;;;;;;8.19;99.91;99771.72;6096773;19;20011;-70
2023/04/01 06:05:30;;;;;;;36.40;15.93;;;;;;;8.21;100.00;99780.38;6098360;19;20504;-70
2023/04/01 06:07:40;;;;;;;38.60;14.75;;;;;;;8.19;99.85;99788.31;6102822;19;20010;-69
2023/04/01 06:09:47;;;;;;;36.97;13.32;;;;;;;8.21;100.00;99791.69;6072047;19;20010;-70
2023/04/01 06:12:19;;;;;;;36.13;13.43;;;;;;;8.14;100.00;99801.59;6104714;19;20014;-70
2023/04/01 06:14:40;;;;;;;29.15;13.18;;;;;;;8.12;99.87;99799.97;6096903;19;20098;-71
2023/04/01 06:17:31;;;;;;;31.80;13.13;;;;;;;8.12;100.00;99810.44;6099921;19;20022;-72
2023/04/01 06:20:00;;;;;;;36.83;15.05;;;;;;;8.08;100.00;99812.38;6078662;19;20106;-72
2023/04/01 06:22:40;;;;;;;36.45;15.52;;;;;;;8.08;100.00;99814.97;6062582;19;20025;-70
2023/04/01 06:25:28;;;;;;;33.15;13.38;;;;;;;8.09;100.00;99813.22;6076723;19;20484;-71
2023/04/01 06:27:52;;;;;;;40.17;14.95;;;;;;;8.08;100.00;99828.06;6051271;19;20021;-71
2023/04/01 06:30:24;;;;;;;27.20;12.80;;;;;;;8.03;100.00;99835.28;6053537;19;20786;-71
2023/04/01 06:32:56;;;;;;;28.15;13.55;;;;;;;8.01;100.00;99831.88;6048130;19;20011;-75
2023/04/01 06:35:23;;;;;;;26.02;11.38;;;;;;;8.02;100.00;99840.56;6097458;19;20482;-76
2023/04/01 06:38:03;;;;;;;33.63;14.00;;;;;;;8.09;100.00;99842.00;6079434;19;20007;-72
2023/04/01 06:40:46;;;;;;;35.88;14.73;;;;;;;8.06;100.00;99845.59;6034331;19;20018;-72
2023/04/01 06:43:29;;;;;;;29.33;12.02;;;;;;;8.02;100.00;99845.81;6008854;19;20110;-72
2023/04/01 06:49:30;;;;;;;33.05;13.98;;;;;;;8.03;100.00;99842.25;5999809;19;20014;-72
2023/04/01 06:51:53;;;;;;;27.85;11.65;;;;;;;8.04;100.00;99854.44;6058487;19;20415;-71
2023/04/01 06:54:34;;;;;;;28.40;12.55;;;;;;;8.11;100.00;99851.47;5982456;19;20015;-71
2023/04/01 06:57:05;;;;;;;30.33;10.20;;;;;;;8.13;99.72;99856.63;6027248;19;20081;-72
2023/04/01 07:02:58;;;;;;;30.92;13.48;;;;;;;8.20;99.76;99860.66;6027160;19;20479;-72
2023/04/01 07:05:33;;;;;;;27.73;11.98;;;;;;;8.14;99.71;99869.63;6020378;19;20011;-70
2023/04/01 07:08:02;;;;;;;31.35;11.57;;;;;;;8.16;99.63;99869.56;6006185;19;20006;-71
2023/04/01 07:10:46;;;;;;;21.40;10.18;;;;;;;8.17;99.62;99875.66;6050465;19;20022;-71
2023/04/01 07:13:34;;;;;;;21.65;11.00;;;;;;;8.15;99.80;99880.94;6087102;19;20034;-70
2023/04/01 07:16:03;;;;;;;23.70;10.38;;;;;;;8.16;99.57;99873.94;6045753;19;20434;-71
2023/04/01 07:18:28;;;;;;;21.90;9.35;;;;;;;8.20;99.59;99884.22;6085374;19;20362;-70
2023/04/01 07:20:52;;;;;;;21.00;9.50;;;;;;;8.24;99.75;99892.75;6050982;19;20514;-70
2023/04/01 07:25:33;;;;;;;22.88;8.77;;;;;;;8.32;99.27;99891.50;6074596;19;20040;-74
2023/04/01 07:27:38;;;;;;;19.20;7.63;;;;;;;8.41;99.12;99894.66;6098236;19;20003;-75
2023/04/01 07:29:44;;;;;;;18.95;8.90;;;;;;;8.36;99.04;99895.66;6098395;19;20020;-74
2023/04/01 07:32:04;;;;;;;15.52;7.65;;;;;;;8.38;99.09;99905.22;6096056;19;20015;-75
2023/04/01 07:34:17;;;;;;;17.60;7.30;;;;;;;8.38;98.56;99907.84;6099336;19;20002;-75
2023/04/01 07:36:28;;;;;;;;;;;;;;;8.44;98.60;99910.19;6097821;19;20014;-75
2023/04/01 07:38:47;;;;;;;13.15;6.45;;;;;;;8.46;98.68;99916.22;6101098;19;20338;-75
2023/04/01 07:41:02;;;;;;;17.33;7.25;;;;;;;8.47;98.80;99913.50;6099733;19;20010;-75
2023/04/01 07:43:20;;;;;;;16.25;7.50;;;;;;;8.43;98.40;99913.75;6102744;19;20011;-75
2023/04/01 07:45:33;;;;;;;18.70;8.23;;;;;;;8.41;98.55;99921.66;6083307;19;20027;-75
2023/04/01 07:47:59;;;;;;;22.77;8.93;;;;;;;8.42;98.91;99923.34;6106898;19;20015;-75
2023/04/01 07:50:16;;;;;;;22.38;8.85;;;;;;;8.47;98.83;99928.38;6103294;19;20565;-76
2023/04/01 07:52:28;;;;;;;25.92;9.25;;;;;;;8.38;98.90;99928.78;6107684;19;20082;-75
2023/04/01 07:54:41;;;;;;;25.83;11.07;;;;;;;8.39;99.01;99935.72;6118469;19;20014;-76
2023/04/01 07:56:54;;;;;;;18.73;8.38;;;;;;;8.45;98.74;99931.09;6121526;19;20015;-76
2023/04/01 07:59:09;;;;;;;22.52;9.70;;;;;;;8.42;98.39;99938.22;6123854;19;20483;-76
2023/04/01 08:01:22;;;;;;;28.17;10.90;;;;;;;8.40;98.97;99938.31;6119748;19;20006;-76
2023/04/01 08:03:41;;;;;;;24.97;10.57;;;;;;;8.38;99.03;99949.72;6128523;19;20030;-75
2023/04/01 08:05:58;;;;;;;33.25;11.75;;;;;;;8.42;98.93;99946.06;6120658;19;20340;-72
2023/04/01 08:08:12;;;;;;;26.13;9.80;;;;;;;8.48;98.70;99956.28;6121039;19;20061;-76
2023/04/01 08:10:24;;;;;;;32.33;11.45;;;;;;;8.42;98.99;99961.78;6111822;19;20043;-76
2023/04/01 08:12:41;;;;;;;30.80;11.02;;;;;;;8.41;98.65;99960.09;6104619;19;20047;-76
2023/04/01 08:14:56;;;;;;;28.27;10.77;;;;;;;8.48;99.09;99964.13;6107827;19;20010;-76
2023/04/01 08:17:07;;;;;;;31.58;9.98;;;;;;;8.44;99.00;99966.03;6101512;19;20308;-76
2023/04/01 08:19:24;;;;;;;31.02;12.23;;;;;;;8.43;99.10;99971.34;6104006;19;20010;-75
2023/04/01 08:21:37;;;;;;;30.42;11.57;;;;;;;8.44;98.93;99973.03;6104741;19;20089;-76
2023/04/01 08:23:47;;;;;;;27.05;12.75;;;;;;;8.54;99.35;99982.16;6104083;19;20006;-75
2023/04/01 08:25:59;;;;;;;29.33;10.57;;;;;;;8.52;98.76;99977.00;6100711;19;20002;-75
2023/04/01 08:28:15;;;;;;;28.15;12.38;;;;;;;8.57;98.92;99987.25;6102754;19;20042;-76
2023/04/01 08:30:24;;;;;;;30.90;11.50;;;;;;;8.46;98.71;99984.28;6103974;19;20006;-75
2023/04/01 08:32:34;;;;;;;30.20;12.63;;;;;;;8.49;99.15;99986.78;6102550;19;20287;-75
2023/04/01 08:34:42;;;;;;;36.33;12.10;;;;;;;8.53;99.30;99985.69;6105174;19;20408;-76
2023/04/01 08:36:56;;;;;;;33.17;11.43;;;;;;;8.49;98.65;99992.00;6105984;19;20362;-75
2023/04/01 08:39:09;;;;;;;23.77;10.35;;;;;;;8.49;98.74;99994.63;6101412;19;20101;-77
2023/04/01 08:41:23;;;;;;;;;;;;;;;8.53;98.71;99990.94;6104558;19;20010;-75
2023/04/01 08:43:54;;;;;;;33.03;12.35;;;;;;;8.55;98.56;100000.41;6104891;19;19954;-77
2023/04/01 08:46:31;;;;;;;33.97;11.75;;;;;;;8.57;98.63;100002.97;6098970;19;20483;-74
2023/04/01 08:49:01;;;;;;;32.10;12.73;;;;;;;8.53;98.76;100001.41;6103064;19;20305;-76
2023/04/01 08:51:27;;;;;;;40.90;13.85;;;;;;;8.66;98.79;100012.19;6100259;19;20030;-75
2023/04/01 08:53:51;;;;;;;39.97;13.63;;;;;;;8.65;98.95;100015.72;6105907;19;20032;-76
2023/04/01 08:56:09;;;;;;;29.50;11.55;;;;;;;8.64;98.48;100019.28;6080996;19;20452;-75
2023/04/01 08:58:29;;;;;;;29.83;11.93;;;;;;;8.56;98.71;100017.00;6107801;19;20760;-76
2023/04/01 09:00:36;;;;;;;26.35;11.18;;;;;;;8.59;98.54;100024.72;6108836;19;20058;-75
2023/04/01 09:02:58;;;;;;;30.80;11.57;;;;;;;8.59;98.57;100022.09;6104382;19;20010;-75
2023/04/01 09:05:22;;;;;;;31.75;12.63;;;;;;;8.64;98.70;100030.59;6102435;19;20035;-75
2023/04/01 09:07:42;;;;;;;31.23;11.55;;;;;;;8.63;98.80;100033.28;6101279;19;20013;-76
2023/04/01 09:10:16;;;;;;;24.00;9.10;;;;;;;8.60;98.67;100036.88;6101952;19;20647;-75
2023/04/01 09:12:34;;;;;;;22.45;9.25;;;;;;;8.64;98.56;100042.84;6096885;19;20010;-75
2023/04/01 09:14:57;;;;;;;26.42;9.15;;;;;;;8.65;98.41;100037.53;6101546;19;21093;-76
2023/04/01 09:17:16;;;;;;;;;;;;;;;8.67;98.49;100048.78;6102606;19;20006;-75
2023/04/01 09:19:31;;;;;;;24.20;9.15;;;;;;;8.58;98.50;100051.81;6101896;19;19970;-75
2023/04/01 09:21:59;;;;;;;26.70;9.95;;;;;;;8.61;98.48;100053.44;6100825;19;20262;-75
2023/04/01 09:24:40;;;;;;;30.67;10.68;;;;;;;8.61;98.43;100050.81;6102681;19;20007;-75
2023/04/01 09:27:04;;;;;;;28.25;11.75;;;;;;;8.69;98.51;100054.81;6099959;19;21618;-75
2023/04/01 09:29:28;;;;;;;28.52;11.95;;;;;;;8.72;98.29;100057.28;6104664;19;20018;-76
2023/04/01 09:31:59;;;;;;;34.75;12.88;;;;;;;8.67;98.30;100055.81;6100725;19;20332;-76
2023/04/01 09:34:31;;;;;;;28.52;12.40;;;;;;;8.57;98.46;100056.19;6097702;19;20022;-72
2023/04/01 09:36:47;;;;;;;38.35;12.73;;;;;;;8.58;98.61;100059.66;6098307;19;20010;-70
2023/04/01 09:38:59;;;;;;;36.33;12.18;;;;;;;8.65;98.60;100061.09;6101062;19;20030;-70
2023/04/01 09:41:18;;;;;;;32.33;11.60;;;;;;;8.64;98.51;100062.03;6100825;19;20011;-71
2023/04/01 09:43:36;;;;;;;25.73;10.20;;;;;;;8.63;98.49;100068.16;6104590;19;20018;-71
2023/04/01 09:45:50;;;;;;;25.52;10.27;;;;;;;8.67;98.14;100063.66;6102797;19;20038;-71
2023/04/01 09:48:19;;;;;;;28.38;10.77;;;;;;;8.72;98.54;100070.38;6101014;19;20082;-72
2023/04/01 09:50:35;;;;;;;26.25;9.93;;;;;;;8.85;98.33;100069.84;6106621;19;20042;-71
2023/04/01 09:52:48;;;;;;;21.27;8.43;;;;;;;8.92;98.27;100073.84;6076569;19;20052;-71
2023/04/01 09:55:08;;;;;;;25.73;9.57;;;;;;;8.94;98.43;100077.25;6079086;19;20045;-72
2023/04/01 09:58:09;;;;;;;21.92;8.52;;;;;;;8.96;98.14;100075.44;6071710;19;20009;-72
2023/04/01 10:00:48;;;;;;;22.55;10.02;;;;;;;8.94;98.02;100085.13;6050289;19;20003;-71
2023/04/01 10:03:31;;;;;;;20.27;7.47;;;;;;;8.95;97.74;100082.44;6101364;19;20114;-72
2023/04/01 10:06:06;;;;;;;20.05;7.15;;;;;;;8.98;97.30;100086.69;6077663;19;20010;-72
2023/04/01 10:08:57;;;;;;;19.65;7.00;;;;;;;9.10;97.75;100093.97;6097532;19;20034;-72
2023/04/01 10:11:26;;;;;;;19.55;7.15;;;;;;;9.13;97.56;100092.97;6094077;19;20010;-71
2023/04/01 10:13:58;;;;;;;20.77;8.57;;;;;;;9.12;97.90;100094.75;6099739;19;20002;-70
2023/04/01 10:16:44;;;;;;;20.02;8.82;;;;;;;9.04;97.63;100102.13;6095390;19;20021;-71
2023/04/01 10:19:20;;;;;;;24.52;10.73;;;;;;;9.04;97.40;100109.16;6091705;19;20007;-71
2023/04/01 10:21:52;;;;;;;27.35;11.30;;;;;;;8.96;97.65;100110.34;6104457;19;20665;-71
2023/04/01 10:24:24;;;;;;;28.02;9.93;;;;;;;9.04;97.49;100112.59;6082184;19;20013;-71
2023/04/01 10:26:56;;;;;;;29.42;10.50;;;;;;;9.10;97.75;100111.47;6104533;19;20437;-70
2023/04/01 10:29:42;;;;;;;31.40;10.65;;;;;;;9.05;97.78;100114.28;6106282;19;20520;-70
2023/04/01 10:32:18;;;;;;;27.83;9.25;;;;;;;9.00;97.47;100121.50;6081754;19;20014;-71
2023/04/01 10:34:54;;;;;;;27.13;10.48;;;;;;;9.03;97.56;100118.78;6100191;19;20047;-71
2023/04/01 10:36:59;;;;;;;30.17;12.27;;;;;;;9.04;97.53;100117.00;6104064;19;20030;-71
2023/04/01 10:39:23;;;;;;;27.40;11.18;;;;;;;9.04;97.75;100117.84;6104111;19;20306;-71
2023/04/01 10:42:12;;;;;;;29.75;11.70;;;;;;;9.05;97.93;100119.53;6082298;19;20006;-71
2023/04/01 10:44:49;;;;;;;26.05;10.77;;;;;;;9.00;97.41;100118.91;6100610;19;20428;-71
2023/04/01 10:47:27;;;;;;;24.75;9.30;;;;;;;9.07;97.59;100120.31;6104396;19;20013;-71
2023/04/01 10:49:49;;;;;;;24.73;9.05;;;;;;;9.07;97.44;100133.44;6103965;19;20003;-71
2023/04/01 10:52:36;;;;;;;23.40;8.85;;;;;;;9.05;97.39;100129.19;6102106;19;20006;-71
2023/04/01 10:55:01;;;;;;;27.52;10.57;;;;;;;9.08;97.81;100129.88;6102971;19;20003;-71
2023/04/01 10:57:24;;;;;;;23.20;9.48;;;;;;;9.07;97.66;100137.81;6104792;19;20138;-71
2023/04/01 11:00:20;;;;;;;23.67;9.20;;;;;;;9.05;97.71;100129.19;6102876;19;20010;-71
2023/04/01 11:03:04;;;;;;;25.30;8.98;;;;;;;8.96;97.19;100144.41;6097902;19;20047;-71
2023/04/01 11:05:40;;;;;;;27.50;10.32;;;;;;;8.95;97.97;100144.47;6098597;19;20011;-71
2023/04/01 11:08:18;;;;;;;30.60;10.38;;;;;;;9.02;98.22;100148.50;6082759;19;20017;-71
2023/04/01 11:11:00;;;;;;;28.60;11.07;;;;;;;8.97;97.69;100153.09;6103336;19;20015;-71
2023/04/01 11:13:42;;;;;;;25.02;9.82;;;;;;;8.89;98.24;100153.44;6110104;19;20020;-72
2023/04/01 11:16:43;;;;;;;28.38;10.20;;;;;;;8.94;98.01;100155.88;6115020;19;20014;-71
2023/04/01 11:19:33;;;;;;;27.67;11.63;;;;;;;9.00;98.13;100153.84;6085967;19;20006;-72
2023/04/01 11:22:27;;;;;;;31.70;10.40;;;;;;;8.95;97.89;100154.94;6069452;19;20058;-71
2023/04/01 11:25:13;;;;;;;30.05;10.77;;;;;;;9.02;98.21;100161.63;6045091;19;20007;-72
2023/04/01 11:27:37;;;;;;;36.55;11.85;;;;;;;8.93;98.44;100156.81;6076207;19;20003;-71
2023/04/01 11:30:23;;;;;;;36.15;12.20;;;;;;;8.99;98.12;100167.84;6083614;19;20006;-72
2023/04/01 11:32:52;;;;;;;26.40;10.77;;;;;;;8.97;98.30;100166.22;6035660;19;20023;-71
2023/04/01 11:38:47;;;;;;;32.17;11.40;;;;;;;9.04;97.55;100175.50;6051974;19;20078;-71
2023/04/01 11:41:17;;;;;;;31.85;10.27;;;;;;;9.20;98.51;100181.75;6074001;19;20022;-71
2023/04/01 11:43:44;;;;;;;;;;;;;;;;;;;;;
2023/04/01 11:45:58;;;;;;;27.58;10.65;;;;;;;9.35;97.63;100179.38;6102651;19;20074;-70
2023/04/01 11:48:37;;;;;;;32.28;12.65;;;;;;;9.33;97.96;100181.22;6098670;19;20002;-71
2023/04/01 11:51:01;;;;;;;31.80;11.70;;;;;;;9.30;97.41;100184.81;6100207;19;20003;-70
2023/04/01 11:53:34;;;;;;;28.75;11.65;;;;;;;9.25;97.26;100189.41;6098788;19;20078;-70
2023/04/01 11:55:54;;;;;;;27.17;10.32;;;;;;;9.40;97.57;100193.09;6103767;19;20015;-72
2023/04/01 11:58:23;;;;;;;32.38;11.75;;;;;;;9.32;97.31;100195.22;6102585;19;20013;-71
2023/04/01 12:00:50;;;;;;;35.05;11.77;;;;;;;9.29;97.49;100205.84;6081043;19;20129;-71
2023/04/01 12:03:20;;;;;;;27.25;10.60;;;;;;;9.29;97.17;100205.84;6057588;19;20047;-70
2023/04/01 12:05:46;;;;;;;29.90;11.73;;;;;;;9.26;97.38;100213.84;6098435;19;20341;-70
2023/04/01 12:08:15;;;;;;;25.58;10.38;;;;;;;9.31;97.33;100214.50;6096560;19;20015;-71
2023/04/01 12:10:28;;;;;;;27.85;10.35;;;;;;;9.25;96.91;100220.88;6088243;19;20009;-70
2023/04/01 12:12:42;;;;;;;24.25;8.88;;;;;;;9.28;96.88;100219.88;6073972;19;20094;-70
2023/04/01 12:15:24;;;;;;;29.27;10.57;;;;;;;9.29;96.50;100222.44;6075998;19;20077;-71
2023/04/01 12:17:39;;;;;;;23.05;8.95;;;;;;;9.28;96.75;100225.97;6092345;19;20015;-70
2023/04/01 12:20:01;;;;;;;26.08;9.15;;;;;;;9.30;97.11;100231.16;6101135;19;20077;-69